createdAt,value
2023-08-29T00:00:02.048Z,101289.22
2023-08-29T00:02:33.057Z,101281.84
2023-08-29T00:05:01.231Z,101290.59
2023-08-29T00:07:28.956Z,101288.84
2023-08-29T00:09:58.066Z,101285.59
2023-08-29T00:12:25.848Z,101290.38
2023-08-29T00:14:53.621Z,101293.44
2023-08-29T00:17:21.401Z,101281.97
2023-08-29T00:19:49.226Z,101284.00
2023-08-29T00:22:17.007Z,101282.44
2023-08-29T00:24:45.741Z,101276.28
2023-08-29T00:27:14.873Z,101276.44
2023-08-29T00:29:43.600Z,101271.44
2023-08-29T00:32:12.264Z,101272.47
2023-08-29T00:34:40.016Z,101263.59
2023-08-29T00:37:08.081Z,101255.84
2023-08-29T00:39:36.040Z,101257.41
2023-08-29T00:42:04.154Z,101264.91
2023-08-29T00:44:33.230Z,101257.88
2023-08-29T00:47:01.110Z,101258.06
2023-08-29T00:49:30.846Z,101256.50
2023-08-29T00:52:01.121Z,101256.50
2023-08-29T00:54:29.052Z,101252.53
2023-08-29T00:56:57.698Z,101258.88
2023-08-29T00:59:25.523Z,101256.63
2023-08-29T01:01:55.399Z,101265.00
2023-08-29T01:04:23.897Z,101259.66
2023-08-29T01:06:51.706Z,101256.94
2023-08-29T01:09:19.970Z,101255.22
2023-08-29T01:11:55.578Z,101245.41
2023-08-29T01:14:29.090Z,101238.41
2023-08-29T01:17:04.544Z,101244.03
2023-08-29T01:19:35.233Z,101252.72
2023-08-29T01:22:16.094Z,101241.75
2023-08-29T01:24:51.738Z,101249.72
2023-08-29T01:27:22.006Z,101247.31
2023-08-29T01:29:50.542Z,101241.97
2023-08-29T01:32:18.902Z,101237.03
2023-08-29T01:34:47.721Z,101240.78
2023-08-29T01:37:15.478Z,101242.78
2023-08-29T01:39:43.241Z,101251.28
2023-08-29T01:42:11.050Z,101249.06
2023-08-29T01:44:40.134Z,101256.56
2023-08-29T01:47:07.936Z,101246.78
2023-08-29T01:49:37.442Z,101250.53
2023-08-29T01:52:05.342Z,101248.34
2023-08-29T01:54:34.223Z,101243.53
2023-08-29T01:57:03.677Z,101250.53
2023-08-29T01:59:32.030Z,101262.31
2023-08-29T02:02:02.366Z,101255.16
2023-08-29T02:04:30.758Z,101248.81
2023-08-29T02:06:58.599Z,101239.06
2023-08-29T02:09:26.382Z,101238.53
2023-08-29T02:11:54.152Z,101242.97
2023-08-29T02:14:21.871Z,101234.94
2023-08-29T02:16:49.662Z,101246.03
2023-08-29T02:19:18.796Z,101247.19
2023-08-29T02:21:46.551Z,101246.34
2023-08-29T02:24:14.341Z,101242.91
2023-08-29T02:26:42.080Z,101252.09
2023-08-29T02:29:09.846Z,101246.81
2023-08-29T02:31:37.689Z,101248.16
2023-08-29T02:34:05.485Z,101258.19
2023-08-29T02:36:34.576Z,101251.66
2023-08-29T02:39:02.314Z,101259.38
2023-08-29T02:41:30.088Z,101257.66
2023-08-29T02:43:57.782Z,101255.97
2023-08-29T02:46:25.567Z,101254.22
2023-08-29T02:48:53.413Z,101257.25
2023-08-29T02:51:21.163Z,101256.25
2023-08-29T02:53:50.312Z,101265.63
2023-08-29T02:56:18.066Z,101270.22
2023-08-29T02:58:45.866Z,101271.38
2023-08-29T03:01:13.901Z,101269.97
2023-08-29T03:03:41.973Z,101273.59
2023-08-29T03:06:10.102Z,101280.91
2023-08-29T03:08:37.852Z,101281.91
2023-08-29T03:11:07.025Z,101268.88
2023-08-29T03:13:34.965Z,101278.78
2023-08-29T03:16:02.865Z,101272.94
2023-08-29T03:18:30.673Z,101275.66
2023-08-29T03:21:01.941Z,101275.84
2023-08-29T03:23:29.714Z,101269.09
2023-08-29T03:26:04.643Z,101267.94
2023-08-29T03:28:34.023Z,101266.81
2023-08-29T03:31:10.114Z,101268.84
2023-08-29T03:33:38.857Z,101275.03
2023-08-29T03:36:07.160Z,101268.72
2023-08-29T03:38:36.978Z,101270.56
2023-08-29T03:41:05.870Z,101267.00
2023-08-29T03:43:35.905Z,101268.84
2023-08-29T03:46:05.295Z,101269.72
2023-08-29T03:48:33.670Z,101275.19
2023-08-29T03:51:06.876Z,101279.75
2023-08-29T03:53:34.935Z,101283.22
2023-08-29T03:56:03.687Z,101280.31
2023-08-29T03:58:32.016Z,101290.09
2023-08-29T04:01:01.487Z,101291.50
2023-08-29T04:03:29.962Z,101282.31
2023-08-29T04:05:57.884Z,101264.03
2023-08-29T04:08:25.760Z,101267.47
2023-08-29T04:10:53.571Z,101267.31
2023-08-29T04:13:21.410Z,101264.44
2023-08-29T04:15:49.249Z,101264.28
2023-08-29T04:18:18.634Z,101259.69
2023-08-29T04:20:46.441Z,101256.94
2023-08-29T04:23:14.204Z,101257.50
2023-08-29T04:25:42.022Z,101243.69
2023-08-29T04:28:10.662Z,101226.91
2023-08-29T04:30:38.449Z,101241.97
2023-08-29T04:33:08.047Z,101236.81
2023-08-29T04:35:37.229Z,101240.28
2023-08-29T04:38:05.521Z,101231.38
2023-08-29T04:40:33.562Z,101238.38
2023-08-29T04:43:01.423Z,101223.34
2023-08-29T04:45:29.346Z,101229.91
2023-08-29T04:47:57.206Z,101236.03
2023-08-29T04:50:26.949Z,101219.47
2023-08-29T04:52:56.337Z,101219.34
2023-08-29T04:55:24.419Z,101233.56
2023-08-29T04:57:53.108Z,101221.63
2023-08-29T05:00:22.196Z,101218.72
2023-08-29T05:02:50.013Z,101215.81
2023-08-29T05:05:17.998Z,101214.66
2023-08-29T05:07:45.838Z,101218.25
2023-08-29T05:10:15.028Z,101215.53
2023-08-29T05:12:43.265Z,101213.47
2023-08-29T05:15:11.805Z,101208.00
2023-08-29T05:17:39.659Z,101200.53
2023-08-29T05:20:11.081Z,101195.78
2023-08-29T05:22:39.177Z,101193.72
2023-08-29T05:25:07.883Z,101183.81
2023-08-29T05:27:37.132Z,101188.25
2023-08-29T05:30:06.599Z,101194.97
2023-08-29T05:32:34.691Z,101194.50
2023-08-29T05:35:03.839Z,101199.63
2023-08-29T05:37:31.761Z,101195.59
2023-08-29T05:39:59.529Z,101196.81
2023-08-29T05:42:31.567Z,101199.06
2023-08-29T05:45:00.778Z,101198.59
2023-08-29T05:47:28.683Z,101204.25
2023-08-29T05:49:56.439Z,101196.44
2023-08-29T05:52:24.235Z,101197.84
2023-08-29T05:54:52.108Z,101193.75
2023-08-29T05:57:19.924Z,101197.91
2023-08-29T05:59:47.689Z,101204.91
2023-08-29T06:02:16.979Z,101201.31
2023-08-29T06:04:44.758Z,101205.59
2023-08-29T06:07:12.767Z,101206.13
2023-08-29T06:09:40.561Z,101208.56
2023-08-29T06:12:09.592Z,101206.38
2023-08-29T06:14:37.405Z,101202.47
2023-08-29T06:17:05.499Z,101202.66
2023-08-29T06:19:34.742Z,101205.91
2023-08-29T06:22:02.616Z,101205.78
2023-08-29T06:24:30.467Z,101210.41
2023-08-29T06:26:58.726Z,101210.06
2023-08-29T06:29:26.906Z,101216.59
2023-08-29T06:31:55.164Z,101205.16
2023-08-29T06:34:22.996Z,101208.13
2023-08-29T06:36:52.176Z,101212.22
2023-08-29T06:39:19.934Z,101206.41
2023-08-29T06:41:47.699Z,101197.34
2023-08-29T06:44:15.925Z,101200.59
2023-08-29T06:46:43.846Z,101203.16
2023-08-29T06:49:11.701Z,101205.75
2023-08-29T06:51:39.470Z,101200.97
2023-08-29T06:54:08.745Z,101199.63
2023-08-29T06:56:36.531Z,101203.72
2023-08-29T06:59:04.478Z,101205.28
2023-08-29T07:01:32.261Z,101205.09
2023-08-29T07:04:00.080Z,101204.59
2023-08-29T07:06:27.881Z,101204.28
2023-08-29T07:08:55.626Z,101202.41
2023-08-29T07:11:24.838Z,101200.00
2023-08-29T07:13:52.609Z,101200.03
2023-08-29T07:16:20.449Z,101199.16
2023-08-29T07:18:48.325Z,101195.59
2023-08-29T07:21:16.139Z,101196.47
2023-08-29T07:23:44.180Z,101194.22
2023-08-29T07:26:12.056Z,101197.47
2023-08-29T07:28:41.164Z,101199.03
2023-08-29T07:31:09.446Z,101191.13
2023-08-29T07:33:37.723Z,101196.91
2023-08-29T07:36:06.640Z,101195.16
2023-08-29T07:38:34.456Z,101188.28
2023-08-29T07:41:02.455Z,101186.84
2023-08-29T07:43:30.282Z,101183.06
2023-08-29T07:46:00.759Z,101187.66
2023-08-29T07:48:28.703Z,101192.06
2023-08-29T07:50:56.474Z,101180.56
2023-08-29T07:53:24.247Z,101193.53
2023-08-29T07:55:52.053Z,101184.56
2023-08-29T07:58:21.834Z,101193.41
2023-08-29T08:00:49.741Z,101198.47
2023-08-29T08:03:18.969Z,101209.06
2023-08-29T08:05:46.765Z,101200.72
2023-08-29T08:08:15.226Z,101199.34
2023-08-29T08:10:43.037Z,101202.09
2023-08-29T08:13:10.971Z,101202.59
2023-08-29T08:15:38.934Z,101202.19
2023-08-29T08:18:07.694Z,101202.38
2023-08-29T08:20:37.187Z,101206.50
2023-08-29T08:23:05.267Z,101204.56
2023-08-29T08:25:33.069Z,101198.19
2023-08-29T08:28:00.927Z,101192.34
2023-08-29T08:30:30.508Z,101205.16
2023-08-29T08:32:58.317Z,101195.84
2023-08-29T08:35:26.777Z,101195.44
2023-08-29T08:37:56.222Z,101198.00
2023-08-29T08:40:24.224Z,101190.34
2023-08-29T08:42:52.568Z,101193.72
2023-08-29T08:45:23.509Z,101195.09
2023-08-29T08:47:52.586Z,101188.59
2023-08-29T08:50:20.772Z,101187.00
2023-08-29T08:52:51.942Z,101184.25
2023-08-29T08:55:23.002Z,101186.59
2023-08-29T08:57:52.042Z,101157.75
2023-08-29T09:00:20.429Z,101188.53
2023-08-29T09:02:49.104Z,101174.50
2023-08-29T09:05:17.147Z,101175.44
2023-08-29T09:07:45.071Z,101170.44
2023-08-29T09:10:14.159Z,101169.31
2023-08-29T09:12:56.849Z,101170.38
2023-08-29T09:15:27.255Z,101175.81
2023-08-29T09:17:56.462Z,101177.13
2023-08-29T09:20:29.138Z,101168.22
2023-08-29T09:22:57.414Z,101173.84
2023-08-29T09:25:26.358Z,101172.38
2023-08-29T09:27:55.646Z,101174.97
2023-08-29T09:30:23.711Z,101170.94
2023-08-29T09:32:53.327Z,101174.56
2023-08-29T09:35:23.637Z,101161.66
2023-08-29T09:37:53.595Z,101159.09
2023-08-29T09:40:38.230Z,101156.34
2023-08-29T09:43:09.009Z,101161.09
2023-08-29T09:45:39.014Z,101163.44
2023-08-29T09:48:09.762Z,101150.94
2023-08-29T09:50:38.638Z,101161.53
2023-08-29T09:53:07.835Z,101150.22
2023-08-29T09:55:42.194Z,101141.06
2023-08-29T09:58:12.559Z,101137.34
2023-08-29T10:00:42.241Z,101151.91
2023-08-29T10:03:11.125Z,101146.84
2023-08-29T10:05:41.830Z,101139.88
2023-08-29T10:08:36.144Z,101145.66
2023-08-29T10:11:04.925Z,101145.00
2023-08-29T10:13:36.131Z,101133.94
2023-08-29T10:16:06.009Z,101139.47
2023-08-29T10:18:34.732Z,101134.75
2023-08-29T10:21:04.177Z,101129.00
2023-08-29T10:23:33.247Z,101132.41
2023-08-29T10:26:02.331Z,101123.63
2023-08-29T10:28:31.172Z,101122.75
2023-08-29T10:31:02.891Z,101124.63
2023-08-29T10:33:31.134Z,101123.94
2023-08-29T10:35:59.075Z,101112.38
2023-08-29T10:38:29.669Z,101119.38
2023-08-29T10:41:04.413Z,101117.19
2023-08-29T10:43:32.192Z,101106.91
2023-08-29T10:46:15.400Z,101105.66
2023-08-29T10:48:50.994Z,101108.59
2023-08-29T10:51:23.603Z,101103.00
2023-08-29T10:53:52.631Z,101109.09
2023-08-29T10:56:22.142Z,101108.91
2023-08-29T10:58:49.996Z,101095.75
2023-08-29T11:01:33.007Z,101102.47
2023-08-29T11:04:01.970Z,101095.50
2023-08-29T11:06:53.393Z,101102.63
2023-08-29T11:09:23.025Z,101096.72
2023-08-29T11:12:10.361Z,101107.25
2023-08-29T11:14:59.174Z,101102.34
2023-08-29T11:17:28.849Z,101096.00
2023-08-29T11:19:58.174Z,101097.31
2023-08-29T11:22:29.517Z,101095.41
2023-08-29T11:24:58.336Z,101091.56
2023-08-29T11:27:27.334Z,101090.31
2023-08-29T11:30:10.096Z,101083.31
2023-08-29T11:32:51.902Z,101080.09
2023-08-29T11:35:20.401Z,101084.38
2023-08-29T11:37:48.789Z,101080.56
2023-08-29T11:40:22.990Z,101092.81
2023-08-29T11:43:26.092Z,101088.97
2023-08-29T11:45:50.677Z,101096.44
2023-08-29T11:48:25.923Z,101096.22
2023-08-29T11:50:57.650Z,101097.50
2023-08-29T11:53:30.271Z,101093.25
2023-08-29T11:55:58.240Z,101097.88
2023-08-29T11:58:28.388Z,101095.31
2023-08-29T12:00:56.930Z,101093.63
2023-08-29T12:03:27.320Z,101095.28
2023-08-29T12:05:58.259Z,101090.19
2023-08-29T12:08:38.959Z,101088.50
2023-08-29T12:11:08.618Z,101091.03
2023-08-29T12:13:37.164Z,101094.88
2023-08-29T12:16:06.162Z,101089.19
2023-08-29T12:18:35.350Z,101097.88
2023-08-29T12:21:17.046Z,101100.41
2023-08-29T12:23:46.265Z,101096.78
2023-08-29T12:26:16.276Z,101098.38
2023-08-29T12:28:44.315Z,101094.25
2023-08-29T12:31:12.384Z,101090.59
2023-08-29T12:33:41.583Z,101092.47
2023-08-29T12:36:09.761Z,101093.81
2023-08-29T12:38:37.630Z,101085.56
2023-08-29T12:41:05.844Z,101086.47
2023-08-29T12:43:34.071Z,101086.44
2023-08-29T12:46:01.874Z,101071.53
2023-08-29T12:48:29.715Z,101076.38
2023-08-29T12:50:58.931Z,101080.69
2023-08-29T12:53:26.892Z,101080.50
2023-08-29T12:55:54.833Z,101071.66
2023-08-29T12:58:23.576Z,101075.19
2023-08-29T13:00:51.498Z,101069.88
2023-08-29T13:03:19.352Z,101077.50
2023-08-29T13:05:48.475Z,101076.34
2023-08-29T13:08:18.881Z,101076.16
2023-08-29T13:10:47.253Z,101076.69
2023-08-29T13:13:15.014Z,101078.25
2023-08-29T13:15:57.224Z,101070.25
2023-08-29T13:19:16.938Z,101061.63
2023-08-29T13:21:47.849Z,101060.97
2023-08-29T13:24:17.038Z,101059.94
2023-08-29T13:26:44.847Z,101059.94
2023-08-29T13:29:12.667Z,101057.03
2023-08-29T13:31:40.485Z,101053.84
2023-08-29T13:34:08.247Z,101052.06
2023-08-29T13:36:35.999Z,101048.91
2023-08-29T13:39:03.823Z,101049.22
2023-08-29T13:41:34.171Z,101033.38
2023-08-29T13:44:01.991Z,101039.94
2023-08-29T13:46:30.076Z,101036.06
2023-08-29T13:48:57.829Z,101043.38
2023-08-29T13:51:25.664Z,101033.03
2023-08-29T13:53:53.438Z,101024.56
2023-08-29T13:56:21.204Z,101024.25
2023-08-29T13:58:50.377Z,101028.66
2023-08-29T14:01:18.335Z,101036.56
2023-08-29T14:03:46.764Z,101041.78
2023-08-29T14:06:14.695Z,101042.66
2023-08-29T14:08:43.165Z,101040.13
2023-08-29T14:11:11.016Z,101039.25
2023-08-29T14:13:38.788Z,101044.59
2023-08-29T14:16:08.990Z,101042.66
2023-08-29T14:18:37.273Z,101034.09
2023-08-29T14:21:05.305Z,101037.28
2023-08-29T14:23:33.464Z,101030.09
2023-08-29T14:26:01.377Z,101037.13
2023-08-29T14:28:29.273Z,101029.72
2023-08-29T14:30:57.385Z,101045.63
2023-08-29T14:33:26.749Z,101044.72
2023-08-29T14:35:57.720Z,101043.31
2023-08-29T14:38:25.758Z,101045.53
2023-08-29T14:40:53.587Z,101033.66
2023-08-29T14:43:21.482Z,101039.41
2023-08-29T14:45:49.648Z,101044.88
2023-08-29T14:48:17.489Z,101042.94
2023-08-29T14:50:47.122Z,101044.25
2023-08-29T14:53:14.956Z,101039.44
2023-08-29T14:55:42.778Z,101044.91
2023-08-29T14:58:10.654Z,101043.53
2023-08-29T15:00:42.247Z,101033.22
2023-08-29T15:03:10.665Z,101041.53
2023-08-29T15:05:38.659Z,101044.94
2023-08-29T15:08:08.899Z,101044.03
2023-08-29T15:10:37.595Z,101041.59
2023-08-29T15:13:06.259Z,101042.56
2023-08-29T15:15:34.174Z,101044.50
2023-08-29T15:18:02.104Z,101043.75
2023-08-29T15:20:32.165Z,101037.78
2023-08-29T15:22:59.975Z,101046.16
2023-08-29T15:25:29.256Z,101040.41
2023-08-29T15:27:57.207Z,101036.16
2023-08-29T15:30:25.060Z,101040.97
2023-08-29T15:32:53.054Z,101033.03
2023-08-29T15:35:21.145Z,101032.66
2023-08-29T15:37:48.990Z,101035.19
2023-08-29T15:40:17.200Z,101032.69
2023-08-29T15:42:46.594Z,101032.38
2023-08-29T15:45:15.698Z,101035.78
2023-08-29T15:47:44.550Z,101032.06
2023-08-29T15:50:13.163Z,101034.28
2023-08-29T15:52:40.905Z,101031.22
2023-08-29T15:55:09.335Z,101026.47
2023-08-29T15:57:37.095Z,101030.34
2023-08-29T16:00:13.667Z,101032.44
2023-08-29T16:02:41.894Z,101031.25
2023-08-29T16:05:10.133Z,101037.44
2023-08-29T16:07:38.118Z,101030.06
2023-08-29T16:10:06.865Z,101035.94
2023-08-29T16:12:34.712Z,101030.81
2023-08-29T16:15:02.565Z,101032.00
2023-08-29T16:17:34.270Z,101032.53
2023-08-29T16:20:02.106Z,101025.94
2023-08-29T16:22:30.162Z,101027.25
2023-08-29T16:24:57.954Z,101029.63
2023-08-29T16:27:26.347Z,101027.16
2023-08-29T16:29:55.577Z,101034.31
2023-08-29T16:32:23.996Z,101033.66
2023-08-29T16:34:54.358Z,101033.88
2023-08-29T16:37:22.463Z,101041.69
2023-08-29T16:39:50.270Z,101038.78
2023-08-29T16:42:18.019Z,101039.00
2023-08-29T16:44:45.903Z,101035.88
2023-08-29T16:47:13.733Z,101038.41
2023-08-29T16:49:41.550Z,101040.34
2023-08-29T16:52:10.877Z,101045.50
2023-08-29T16:54:38.651Z,101049.53
2023-08-29T16:57:06.647Z,101048.47
2023-08-29T16:59:55.518Z,101042.97
2023-08-29T17:02:23.329Z,101047.84
2023-08-29T17:04:51.223Z,101041.03
2023-08-29T17:07:20.467Z,101038.44
2023-08-29T17:09:48.472Z,101032.44
2023-08-29T17:12:19.476Z,101039.66
2023-08-29T17:14:47.845Z,101043.94
2023-08-29T17:17:15.735Z,101036.69
2023-08-29T17:19:44.553Z,101039.22
2023-08-29T17:22:12.451Z,101041.91
2023-08-29T17:24:41.603Z,101036.13
2023-08-29T17:27:09.517Z,101034.44
2023-08-29T17:29:37.580Z,101040.16
2023-08-29T17:32:06.142Z,101033.31
2023-08-29T17:34:34.124Z,101038.16
2023-08-29T17:37:01.923Z,101037.00
2023-08-29T17:39:30.083Z,101029.53
2023-08-29T17:41:59.292Z,101029.94
2023-08-29T17:44:27.110Z,101020.72
2023-08-29T17:46:54.908Z,101024.41
2023-08-29T17:49:23.036Z,101025.84
2023-08-29T17:51:50.930Z,101024.50
2023-08-29T17:54:18.758Z,101026.91
2023-08-29T17:56:46.760Z,101021.41
2023-08-29T17:59:15.992Z,101027.38
2023-08-29T18:01:44.343Z,101029.25
2023-08-29T18:04:12.285Z,101016.72
2023-08-29T18:06:40.089Z,101025.00
2023-08-29T18:09:07.920Z,101021.41
2023-08-29T18:11:35.831Z,101024.81
2023-08-29T18:14:05.002Z,101016.47
2023-08-29T18:16:34.209Z,101021.59
2023-08-29T18:19:03.033Z,101029.19
2023-08-29T18:21:30.976Z,101022.84
2023-08-29T18:23:58.945Z,101014.13
2023-08-29T18:26:27.533Z,101017.66
2023-08-29T18:28:55.266Z,101016.31
2023-08-29T18:31:23.340Z,101012.25
2023-08-29T18:33:52.566Z,101013.03
2023-08-29T18:36:20.314Z,101008.31
2023-08-29T18:38:48.126Z,101014.19
2023-08-29T18:41:18.356Z,101016.47
2023-08-29T18:43:46.136Z,101014.28
2023-08-29T18:46:17.666Z,101005.56
2023-08-29T18:48:45.958Z,101005.50
2023-08-29T18:51:15.128Z,101004.66
2023-08-29T18:53:42.932Z,101003.31
2023-08-29T18:56:10.768Z,101002.84
2023-08-29T18:58:38.539Z,101012.53
2023-08-29T19:01:06.354Z,101002.88
2023-08-29T19:03:34.162Z,101013.03
2023-08-29T19:06:02.040Z,101012.75
2023-08-29T19:08:31.186Z,101007.16
2023-08-29T19:11:05.077Z,101011.34
2023-08-29T19:13:33.314Z,101009.81
2023-08-29T19:16:01.266Z,101010.75
2023-08-29T19:18:29.376Z,101020.06
2023-08-29T19:20:57.177Z,101014.44
2023-08-29T19:23:25.814Z,101009.91
2023-08-29T19:25:55.720Z,101009.22
2023-08-29T19:28:23.516Z,101005.13
2023-08-29T19:30:51.320Z,101003.59
2023-08-29T19:33:19.946Z,101006.06
2023-08-29T19:35:47.778Z,101009.38
2023-08-29T19:38:15.605Z,101009.75
2023-08-29T19:40:43.438Z,100995.75
2023-08-29T19:43:12.630Z,101002.06
2023-08-29T19:45:40.448Z,100994.22
2023-08-29T19:48:08.630Z,101002.81
2023-08-29T19:50:36.675Z,100999.78
2023-08-29T19:53:04.746Z,101001.03
2023-08-29T19:55:32.515Z,101003.63
2023-08-29T19:58:00.285Z,100998.69
2023-08-29T20:00:29.480Z,100997.38
2023-08-29T20:02:57.434Z,101005.13
2023-08-29T20:05:25.528Z,101001.91
2023-08-29T20:07:53.348Z,101000.75
2023-08-29T20:10:21.588Z,101008.66
2023-08-29T20:12:50.088Z,100999.78
2023-08-29T20:15:19.275Z,100998.91
2023-08-29T20:17:48.515Z,100995.53
2023-08-29T20:20:16.595Z,100999.44
2023-08-29T20:22:47.164Z,101000.69
2023-08-29T20:25:15.047Z,100993.66
2023-08-29T20:27:42.937Z,100991.97
2023-08-29T20:30:11.470Z,100994.22
2023-08-29T20:32:39.313Z,100980.84
2023-08-29T20:35:09.582Z,100991.81
2023-08-29T20:37:37.392Z,100987.53
2023-08-29T20:40:06.362Z,100979.84
2023-08-29T20:42:34.849Z,100974.25
2023-08-29T20:45:02.747Z,100986.63
2023-08-29T20:47:30.566Z,100975.03
2023-08-29T20:49:58.440Z,100982.88
2023-08-29T20:52:27.610Z,100983.25
2023-08-29T20:54:55.558Z,100977.63
2023-08-29T20:57:23.319Z,100979.88
2023-08-29T20:59:51.076Z,100979.38
2023-08-29T21:02:18.888Z,100985.75
2023-08-29T21:04:46.790Z,100977.69
2023-08-29T21:07:14.740Z,100971.22
2023-08-29T21:09:43.953Z,100980.59
2023-08-29T21:12:11.774Z,100982.50
2023-08-29T21:14:39.530Z,100966.59
2023-08-29T21:17:07.346Z,100972.75
2023-08-29T21:19:35.538Z,100969.13
2023-08-29T21:22:04.459Z,100968.97
2023-08-29T21:24:32.321Z,100962.63
2023-08-29T21:27:01.432Z,100960.38
2023-08-29T21:29:29.242Z,100957.44
2023-08-29T21:31:57.097Z,100953.03
2023-08-29T21:34:24.928Z,100952.53
2023-08-29T21:36:52.730Z,100947.69
2023-08-29T21:39:20.531Z,100943.25
2023-08-29T21:41:48.656Z,100942.88
2023-08-29T21:44:17.827Z,100946.84
2023-08-29T21:46:46.101Z,100938.47
2023-08-29T21:49:13.942Z,100943.31
2023-08-29T21:51:41.784Z,100938.84
2023-08-29T21:54:09.637Z,100939.19
2023-08-29T21:56:37.418Z,100932.38
2023-08-29T21:59:05.226Z,100937.19
2023-08-29T22:01:34.992Z,100929.34
2023-08-29T22:04:02.775Z,100930.53
2023-08-29T22:06:30.580Z,100928.34
2023-08-29T22:08:58.478Z,100917.06
2023-08-29T22:11:26.385Z,100918.28
2023-08-29T22:13:54.196Z,100915.69
2023-08-29T22:16:22.046Z,100911.44
2023-08-29T22:18:51.290Z,100912.31
2023-08-29T22:21:19.077Z,100908.19
2023-08-29T22:23:46.856Z,100909.22
2023-08-29T22:26:18.417Z,100901.38
2023-08-29T22:28:46.485Z,100902.59
2023-08-29T22:31:14.359Z,100895.56
2023-08-29T22:33:42.661Z,100899.69
2023-08-29T22:36:11.807Z,100900.75
2023-08-29T22:38:39.669Z,100898.34
2023-08-29T22:41:15.526Z,100888.75
2023-08-29T22:43:49.279Z,100889.28
2023-08-29T22:46:17.112Z,100883.13
2023-08-29T22:48:44.886Z,100874.22
2023-08-29T22:51:13.982Z,100882.28
2023-08-29T22:53:41.767Z,100870.50
2023-08-29T22:56:09.755Z,100866.38
2023-08-29T22:58:37.518Z,100873.06
2023-08-29T23:01:08.816Z,100867.06
2023-08-29T23:03:36.772Z,100860.72
2023-08-29T23:06:04.626Z,100860.25
2023-08-29T23:08:34.489Z,100860.94
2023-08-29T23:11:02.590Z,100860.47
2023-08-29T23:13:30.375Z,100861.31
2023-08-29T23:16:05.245Z,100853.94
2023-08-29T23:18:33.115Z,100844.88
2023-08-29T23:21:00.860Z,100844.88
2023-08-29T23:23:29.194Z,100843.34
2023-08-29T23:25:59.030Z,100827.63
2023-08-29T23:28:26.818Z,100837.19
2023-08-29T23:30:55.684Z,100836.34
2023-08-29T23:33:24.162Z,100835.84
2023-08-29T23:35:52.194Z,100837.91
2023-08-29T23:38:20.149Z,100828.34
2023-08-29T23:40:49.443Z,100832.09
2023-08-29T23:43:18.648Z,100832.09
2023-08-29T23:45:46.709Z,100817.06
2023-08-29T23:48:14.583Z,100817.22
2023-08-29T23:50:42.354Z,100811.94
2023-08-29T23:53:10.315Z,100817.41
2023-08-29T23:55:38.069Z,100815.69
2023-08-29T23:58:05.938Z,100817.09
